sensor_id;sensor_type;location;lat;lon;timestamp;pressure;altitude;pressure_sealevel;temperature;humidity
19594;BME280;9944;48.240;16.478;2024-01-27T00:04:02;100749.41;;;5.98;62.23
19594;BME280;9944;48.240;16.478;2024-01-27T00:08:26;100751.13;;;5.97;62.28
19594;BME280;9944;48.240;16.478;2024-01-27T00:12:51;100751.91;;;5.95;62.63
19594;BME280;9944;48.240;16.478;2024-01-27T00:17:14;100758.03;;;5.94;62.25
19594;BME280;9944;48.240;16.478;2024-01-27T00:21:38;100760.59;;;5.92;62.27
19594;BME280;9944;48.240;16.478;2024-01-27T00:26:01;100782.50;;;5.94;61.97
19594;BME280;9944;48.240;16.478;2024-01-27T00:30:26;100788.44;;;5.88;61.58
19594;BME280;9944;48.240;16.478;2024-01-27T00:34:50;100784.06;;;5.89;61.54
19594;BME280;9944;48.240;16.478;2024-01-27T00:39:13;100812.84;;;5.87;61.26
19594;BME280;9944;48.240;16.478;2024-01-27T00:43:37;100807.72;;;5.90;60.96
19594;BME280;9944;48.240;16.478;2024-01-27T00:48:02;100791.88;;;5.87;60.95
19594;BME280;9944;48.240;16.478;2024-01-27T00:52:26;100811.09;;;5.86;61.13
19594;BME280;9944;48.240;16.478;2024-01-27T00:56:50;100802.41;;;5.89;60.49
19594;BME280;9944;48.240;16.478;2024-01-27T01:01:14;100807.50;;;5.84;60.87
19594;BME280;9944;48.240;16.478;2024-01-27T01:05:39;100826.66;;;5.82;60.67
19594;BME280;9944;48.240;16.478;2024-01-27T01:10:04;100831.03;;;5.83;60.48
19594;BME280;9944;48.240;16.478;2024-01-27T01:14:28;100833.63;;;5.81;60.15
19594;BME280;9944;48.240;16.478;2024-01-27T01:18:51;100830.16;;;5.82;59.64
19594;BME280;9944;48.240;16.478;2024-01-27T01:23:17;100832.81;;;5.84;58.23
19594;BME280;9944;48.240;16.478;2024-01-27T01:27:40;100834.03;;;5.94;59.23
19594;BME280;9944;48.240;16.478;2024-01-27T01:32:04;100857.34;;;6.13;59.44
19594;BME280;9944;48.240;16.478;2024-01-27T01:36:28;100852.84;;;6.09;58.20
19594;BME280;9944;48.240;16.478;2024-01-27T01:40:53;100856.06;;;6.00;58.03
19594;BME280;9944;48.240;16.478;2024-01-27T01:45:16;100839.31;;;5.95;57.13
19594;BME280;9944;48.240;16.478;2024-01-27T01:49:41;100846.16;;;5.91;56.96
19594;BME280;9944;48.240;16.478;2024-01-27T01:54:05;100843.31;;;5.84;56.67
19594;BME280;9944;48.240;16.478;2024-01-27T01:58:31;100855.31;;;5.77;57.20
19594;BME280;9944;48.240;16.478;2024-01-27T02:02:56;100839.47;;;5.74;57.38
19594;BME280;9944;48.240;16.478;2024-01-27T02:07:20;100845.47;;;5.70;57.56
19594;BME280;9944;48.240;16.478;2024-01-27T02:11:43;100864.56;;;5.66;56.85
19594;BME280;9944;48.240;16.478;2024-01-27T02:16:09;100867.06;;;5.63;57.85
19594;BME280;9944;48.240;16.478;2024-01-27T02:20:33;100876.56;;;5.59;57.67
19594;BME280;9944;48.240;16.478;2024-01-27T02:24:57;100885.09;;;5.53;57.61
19594;BME280;9944;48.240;16.478;2024-01-27T02:29:21;100869.41;;;5.55;57.17
19594;BME280;9944;48.240;16.478;2024-01-27T02:33:45;100904.16;;;5.49;57.27
19594;BME280;9944;48.240;16.478;2024-01-27T02:38:09;100891.78;;;5.45;57.43
19594;BME280;9944;48.240;16.478;2024-01-27T02:42:34;100909.06;;;5.40;58.07
19594;BME280;9944;48.240;16.478;2024-01-27T02:46:57;100903.72;;;5.37;58.82
19594;BME280;9944;48.240;16.478;2024-01-27T02:51:21;100914.03;;;5.58;60.08
19594;BME280;9944;48.240;16.478;2024-01-27T02:55:45;100922.31;;;5.70;59.12
19594;BME280;9944;48.240;16.478;2024-01-27T03:00:11;100926.63;;;5.68;58.06
19594;BME280;9944;48.240;16.478;2024-01-27T03:04:34;100935.69;;;5.52;57.93
19594;BME280;9944;48.240;16.478;2024-01-27T03:08:58;100946.59;;;5.41;58.08
19594;BME280;9944;48.240;16.478;2024-01-27T03:13:22;100954.97;;;5.30;58.28
19594;BME280;9944;48.240;16.478;2024-01-27T03:17:47;100963.44;;;5.23;58.76
19594;BME280;9944;48.240;16.478;2024-01-27T03:22:10;100966.72;;;5.18;59.31
19594;BME280;9944;48.240;16.478;2024-01-27T03:26:34;100980.69;;;5.18;60.03
19594;BME280;9944;48.240;16.478;2024-01-27T03:30:58;100984.88;;;5.13;60.72
19594;BME280;9944;48.240;16.478;2024-01-27T03:35:23;101002.44;;;5.15;61.16
19594;BME280;9944;48.240;16.478;2024-01-27T03:39:47;101014.66;;;5.16;61.04
19594;BME280;9944;48.240;16.478;2024-01-27T03:44:11;101029.53;;;5.18;61.05
19594;BME280;9944;48.240;16.478;2024-01-27T03:48:34;101040.97;;;5.20;60.50
19594;BME280;9944;48.240;16.478;2024-01-27T03:53:00;101037.53;;;5.21;60.40
19594;BME280;9944;48.240;16.478;2024-01-27T03:57:23;101039.06;;;5.15;60.27
19594;BME280;9944;48.240;16.478;2024-01-27T04:01:47;101043.34;;;5.13;59.85
19594;BME280;9944;48.240;16.478;2024-01-27T04:06:10;101033.84;;;5.15;59.92
19594;BME280;9944;48.240;16.478;2024-01-27T04:10:36;101031.09;;;5.12;60.00
19594;BME280;9944;48.240;16.478;2024-01-27T04:15:00;101043.94;;;5.06;60.72
19594;BME280;9944;48.240;16.478;2024-01-27T04:19:24;101034.19;;;5.02;60.96
19594;BME280;9944;48.240;16.478;2024-01-27T04:23:47;101034.91;;;4.98;61.32
19594;BME280;9944;48.240;16.478;2024-01-27T04:28:12;101029.63;;;4.96;61.37
19594;BME280;9944;48.240;16.478;2024-01-27T04:32:36;101027.63;;;4.91;61.57
19594;BME280;9944;48.240;16.478;2024-01-27T04:36:59;101014.25;;;4.83;61.75
19594;BME280;9944;48.240;16.478;2024-01-27T04:41:23;101041.97;;;4.78;61.43
19594;BME280;9944;48.240;16.478;2024-01-27T04:45:48;101055.75;;;4.74;61.36
19594;BME280;9944;48.240;16.478;2024-01-27T04:50:12;101057.34;;;4.70;61.77
19594;BME280;9944;48.240;16.478;2024-01-27T04:54:35;101073.00;;;4.69;61.74
19594;BME280;9944;48.240;16.478;2024-01-27T04:58:59;101076.19;;;4.62;62.01
19594;BME280;9944;48.240;16.478;2024-01-27T05:03:24;101078.72;;;4.60;62.53
19594;BME280;9944;48.240;16.478;2024-01-27T05:07:48;101090.72;;;4.55;62.74
19594;BME280;9944;48.240;16.478;2024-01-27T05:12:12;101083.56;;;4.51;62.95
19594;BME280;9944;48.240;16.478;2024-01-27T05:16:35;101106.16;;;4.49;63.01
19594;BME280;9944;48.240;16.478;2024-01-27T05:21:00;101110.41;;;4.47;62.66
19594;BME280;9944;48.240;16.478;2024-01-27T05:25:24;101112.09;;;4.45;62.77
19594;BME280;9944;48.240;16.478;2024-01-27T05:29:48;101123.50;;;4.47;63.08
19594;BME280;9944;48.240;16.478;2024-01-27T05:34:11;101131.13;;;4.42;63.35
19594;BME280;9944;48.240;16.478;2024-01-27T05:38:37;101142.28;;;4.38;63.80
19594;BME280;9944;48.240;16.478;2024-01-27T05:43:00;101143.75;;;4.31;64.13
19594;BME280;9944;48.240;16.478;2024-01-27T05:47:24;101140.19;;;4.29;64.40
19594;BME280;9944;48.240;16.478;2024-01-27T05:51:48;101146.16;;;4.27;64.73
19594;BME280;9944;48.240;16.478;2024-01-27T05:56:13;101150.63;;;4.29;64.58
19594;BME280;9944;48.240;16.478;2024-01-27T06:00:37;101153.03;;;4.25;64.84
19594;BME280;9944;48.240;16.478;2024-01-27T06:05:01;101157.22;;;4.21;65.40
19594;BME280;9944;48.240;16.478;2024-01-27T06:09:24;101156.97;;;4.15;65.16
19594;BME280;9944;48.240;16.478;2024-01-27T06:13:49;101149.00;;;4.12;65.24
19594;BME280;9944;48.240;16.478;2024-01-27T06:18:13;101156.56;;;4.06;65.42
19594;BME280;9944;48.240;16.478;2024-01-27T06:22:37;101168.66;;;4.03;65.56
19594;BME280;9944;48.240;16.478;2024-01-27T06:27:01;101186.00;;;4.01;65.64
19594;BME280;9944;48.240;16.478;2024-01-27T06:31:26;101160.56;;;3.97;65.88
19594;BME280;9944;48.240;16.478;2024-01-27T06:35:49;101164.06;;;3.98;65.81
19594;BME280;9944;48.240;16.478;2024-01-27T06:40:13;101171.66;;;3.93;65.86
19594;BME280;9944;48.240;16.478;2024-01-27T06:44:37;101164.56;;;3.91;66.00
19594;BME280;9944;48.240;16.478;2024-01-27T06:49:02;101160.00;;;3.87;66.52
19594;BME280;9944;48.240;16.478;2024-01-27T06:53:26;101167.66;;;3.82;66.35
19594;BME280;9944;48.240;16.478;2024-01-27T06:57:50;101174.59;;;3.81;66.38
19594;BME280;9944;48.240;16.478;2024-01-27T07:02:13;101184.28;;;3.84;66.07
19594;BME280;9944;48.240;16.478;2024-01-27T07:06:38;101179.75;;;3.80;65.88
19594;BME280;9944;48.240;16.478;2024-01-27T07:11:02;101193.78;;;3.82;65.78
19594;BME280;9944;48.240;16.478;2024-01-27T07:15:26;101193.78;;;3.82;65.94
19594;BME280;9944;48.240;16.478;2024-01-27T07:19:50;101184.84;;;3.77;65.92
19594;BME280;9944;48.240;16.478;2024-01-27T07:24:15;101177.81;;;3.76;65.74
19594;BME280;9944;48.240;16.478;2024-01-27T07:28:38;101173.38;;;3.73;65.73
19594;BME280;9944;48.240;16.478;2024-01-27T07:33:02;101169.91;;;3.74;66.08
19594;BME280;9944;48.240;16.478;2024-01-27T07:37:26;101175.91;;;3.72;66.15
19594;BME280;9944;48.240;16.478;2024-01-27T07:41:51;101184.53;;;3.71;66.40
19594;BME280;9944;48.240;16.478;2024-01-27T07:46:14;101174.09;;;3.71;66.70
19594;BME280;9944;48.240;16.478;2024-01-27T07:50:38;101163.78;;;3.74;66.56
19594;BME280;9944;48.240;16.478;2024-01-27T07:55:02;101155.16;;;3.75;66.27
19594;BME280;9944;48.240;16.478;2024-01-27T07:59:27;101168.31;;;3.78;66.15
19594;BME280;9944;48.240;16.478;2024-01-27T08:03:51;101174.66;;;3.83;66.08
19594;BME280;9944;48.240;16.478;2024-01-27T08:08:15;101172.13;;;3.84;65.65
19594;BME280;9944;48.240;16.478;2024-01-27T08:12:38;101172.34;;;3.89;65.04
19594;BME280;9944;48.240;16.478;2024-01-27T08:17:04;101189.31;;;3.97;64.56
19594;BME280;9944;48.240;16.478;2024-01-27T08:21:27;101175.59;;;4.03;64.23
19594;BME280;9944;48.240;16.478;2024-01-27T08:25:51;101175.94;;;4.11;63.98
19594;BME280;9944;48.240;16.478;2024-01-27T08:30:14;101158.88;;;4.19;63.03
19594;BME280;9944;48.240;16.478;2024-01-27T08:34:40;101173.06;;;4.24;62.36
19594;BME280;9944;48.240;16.478;2024-01-27T08:39:03;101179.47;;;4.31;62.01
19594;BME280;9944;48.240;16.478;2024-01-27T08:43:30;101175.41;;;4.37;62.04
19594;BME280;9944;48.240;16.478;2024-01-27T08:47:53;101182.47;;;4.40;61.83
19594;BME280;9944;48.240;16.478;2024-01-27T08:52:18;101180.88;;;4.44;61.82
19594;BME280;9944;48.240;16.478;2024-01-27T08:56:42;101193.28;;;4.48;61.94
19594;BME280;9944;48.240;16.478;2024-01-27T09:01:05;101205.78;;;4.55;61.97
19594;BME280;9944;48.240;16.478;2024-01-27T09:05:31;101198.91;;;4.57;61.47
19594;BME280;9944;48.240;16.478;2024-01-27T09:09:56;101193.81;;;4.60;61.32
19594;BME280;9944;48.240;16.478;2024-01-27T09:14:19;101199.03;;;4.60;61.59
19594;BME280;9944;48.240;16.478;2024-01-27T09:18:43;101196.59;;;4.65;61.79
19594;BME280;9944;48.240;16.478;2024-01-27T09:23:08;101205.44;;;4.67;62.29
19594;BME280;9944;48.240;16.478;2024-01-27T09:27:32;101227.38;;;4.70;62.43
19594;BME280;9944;48.240;16.478;2024-01-27T09:31:56;101227.38;;;4.70;62.78
19594;BME280;9944;48.240;16.478;2024-01-27T09:36:20;101229.13;;;4.71;62.91
19594;BME280;9944;48.240;16.478;2024-01-27T09:40:44;101224.06;;;4.74;63.50
19594;BME280;9944;48.240;16.478;2024-01-27T09:45:10;101220.72;;;4.78;63.35
19594;BME280;9944;48.240;16.478;2024-01-27T09:49:33;101221.50;;;4.76;63.60
19594;BME280;9944;48.240;16.478;2024-01-27T09:53:58;101218.09;;;4.78;63.49
19594;BME280;9944;48.240;16.478;2024-01-27T09:58:22;101231.47;;;4.85;63.61
19594;BME280;9944;48.240;16.478;2024-01-27T10:02:50;101217.44;;;4.83;63.46
19594;BME280;9944;48.240;16.478;2024-01-27T10:07:15;101244.56;;;4.85;63.71
19594;BME280;9944;48.240;16.478;2024-01-27T10:11:43;101212.34;;;4.86;63.60
19594;BME280;9944;48.240;16.478;2024-01-27T10:16:08;101218.53;;;4.88;63.36
19594;BME280;9944;48.240;16.478;2024-01-27T10:20:35;101227.47;;;4.93;62.98
19594;BME280;9944;48.240;16.478;2024-01-27T10:25:00;101236.34;;;4.96;62.88
19594;BME280;9944;48.240;16.478;2024-01-27T10:29:24;101229.50;;;5.00;62.31
19594;BME280;9944;48.240;16.478;2024-01-27T10:33:51;101244.25;;;4.98;62.79
19594;BME280;9944;48.240;16.478;2024-01-27T10:38:17;101233.78;;;4.98;62.61
19594;BME280;9944;48.240;16.478;2024-01-27T10:42:41;101235.56;;;4.99;62.74
19594;BME280;9944;48.240;16.478;2024-01-27T10:47:06;101232.13;;;5.00;60.64
19594;BME280;9944;48.240;16.478;2024-01-27T10:51:35;101233.88;;;5.01;57.05
19594;BME280;9944;48.240;16.478;2024-01-27T10:56:03;101224.84;;;4.93;56.64
19594;BME280;9944;48.240;16.478;2024-01-27T11:00:32;101219.63;;;4.93;56.54
19594;BME280;9944;48.240;16.478;2024-01-27T11:04:57;101216.34;;;4.98;56.32
19594;BME280;9944;48.240;16.478;2024-01-27T11:09:22;101231.34;;;5.03;56.91
19594;BME280;9944;48.240;16.478;2024-01-27T11:13:47;101224.44;;;5.05;56.04
19594;BME280;9944;48.240;16.478;2024-01-27T11:18:15;101212.41;;;5.08;55.59
19594;BME280;9944;48.240;16.478;2024-01-27T11:22:39;101223.97;;;5.13;54.87
19594;BME280;9944;48.240;16.478;2024-01-27T11:27:06;101222.41;;;5.19;55.35
19594;BME280;9944;48.240;16.478;2024-01-27T11:31:31;101219.09;;;5.23;55.63
19594;BME280;9944;48.240;16.478;2024-01-27T11:36:04;101233.28;;;5.28;54.79
19594;BME280;9944;48.240;16.478;2024-01-27T11:40:28;101233.44;;;5.32;55.38
19594;BME280;9944;48.240;16.478;2024-01-27T11:44:52;101247.81;;;5.42;54.92
19594;BME280;9944;48.240;16.478;2024-01-27T11:49:19;101230.50;;;5.46;53.83
19594;BME280;9944;48.240;16.478;2024-01-27T11:53:43;101243.53;;;5.44;53.52
19594;BME280;9944;48.240;16.478;2024-01-27T11:58:07;101233.03;;;5.44;53.92
19594;BME280;9944;48.240;16.478;2024-01-27T12:02:31;101225.97;;;5.42;54.56
19594;BME280;9944;48.240;16.478;2024-01-27T12:06:56;101241.03;;;5.47;54.50
19594;BME280;9944;48.240;16.478;2024-01-27T12:11:19;101237.69;;;5.51;54.03
19594;BME280;9944;48.240;16.478;2024-01-27T12:15:47;101229.00;;;5.52;53.44
19594;BME280;9944;48.240;16.478;2024-01-27T12:20:14;101234.13;;;5.49;54.17
19594;BME280;9944;48.240;16.478;2024-01-27T12:24:40;101232.59;;;5.54;53.77
19594;BME280;9944;48.240;16.478;2024-01-27T12:29:05;101225.59;;;5.53;54.14
19594;BME280;9944;48.240;16.478;2024-01-27T12:33:29;101212.78;;;5.61;53.15
19594;BME280;9944;48.240;16.478;2024-01-27T12:37:53;101219.91;;;5.65;53.45
19594;BME280;9944;48.240;16.478;2024-01-27T12:42:18;101219.28;;;5.71;53.35
19594;BME280;9944;48.240;16.478;2024-01-27T12:46:42;101207.25;;;5.76;53.59
19594;BME280;9944;48.240;16.478;2024-01-27T12:51:06;101197.88;;;5.83;53.58
19594;BME280;9944;48.240;16.478;2024-01-27T12:55:29;101213.91;;;5.90;52.78
19594;BME280;9944;48.240;16.478;2024-01-27T12:59:55;101205.38;;;5.96;52.98
19594;BME280;9944;48.240;16.478;2024-01-27T13:04:18;101217.16;;;6.07;52.25
19594;BME280;9944;48.240;16.478;2024-01-27T13:08:42;101230.56;;;6.15;52.94
19594;BME280;9944;48.240;16.478;2024-01-27T13:13:05;101235.31;;;6.25;53.79
19594;BME280;9944;48.240;16.478;2024-01-27T13:17:30;101226.69;;;6.29;54.07
19594;BME280;9944;48.240;16.478;2024-01-27T13:21:54;101214.38;;;6.27;54.74
19594;BME280;9944;48.240;16.478;2024-01-27T13:26:18;101214.28;;;6.24;55.07
19594;BME280;9944;48.240;16.478;2024-01-27T13:30:44;101219.69;;;6.28;53.32
19594;BME280;9944;48.240;16.478;2024-01-27T13:35:09;101222.31;;;6.28;52.31
19594;BME280;9944;48.240;16.478;2024-01-27T13:39:32;101232.75;;;6.27;51.41
19594;BME280;9944;48.240;16.478;2024-01-27T13:43:56;101231.00;;;6.27;50.89
19594;BME280;9944;48.240;16.478;2024-01-27T13:48:20;101226.63;;;6.26;51.87
19594;BME280;9944;48.240;16.478;2024-01-27T13:52:45;101221.38;;;6.26;51.39
19594;BME280;9944;48.240;16.478;2024-01-27T13:57:10;101212.44;;;6.21;51.32
19594;BME280;9944;48.240;16.478;2024-01-27T14:01:35;101221.19;;;6.22;51.20
19594;BME280;9944;48.240;16.478;2024-01-27T14:05:59;101217.50;;;6.17;51.38
19594;BME280;9944;48.240;16.478;2024-01-27T14:10:24;101230.63;;;6.17;51.74
19594;BME280;9944;48.240;16.478;2024-01-27T14:14:48;101240.16;;;6.15;51.63
19594;BME280;9944;48.240;16.478;2024-01-27T14:19:13;101247.97;;;6.13;51.52
19594;BME280;9944;48.240;16.478;2024-01-27T14:23:36;101254.09;;;6.14;51.84
19594;BME280;9944;48.240;16.478;2024-01-27T14:28:03;101257.50;;;6.11;51.72
19594;BME280;9944;48.240;16.478;2024-01-27T14:32:29;101248.78;;;6.12;52.22
19594;BME280;9944;48.240;16.478;2024-01-27T14:36:53;101257.59;;;6.14;52.17
19594;BME280;9944;48.240;16.478;2024-01-27T14:41:17;101261.81;;;6.10;52.58
19594;BME280;9944;48.240;16.478;2024-01-27T14:45:43;101258.38;;;6.11;51.73
19594;BME280;9944;48.240;16.478;2024-01-27T14:50:10;101271.31;;;6.07;52.02
19594;BME280;9944;48.240;16.478;2024-01-27T14:54:35;101276.53;;;6.07;52.14
19594;BME280;9944;48.240;16.478;2024-01-27T14:58:59;101277.41;;;6.06;52.28
19594;BME280;9944;48.240;16.478;2024-01-27T15:03:24;101288.59;;;6.02;51.78
19594;BME280;9944;48.240;16.478;2024-01-27T15:07:48;101283.34;;;6.02;52.27
19594;BME280;9944;48.240;16.478;2024-01-27T15:12:12;101293.59;;;5.96;52.54
19594;BME280;9944;48.240;16.478;2024-01-27T15:16:35;101292.66;;;5.94;52.44
19594;BME280;9944;48.240;16.478;2024-01-27T15:26:00;101308.00;;;5.84;52.66
19594;BME280;9944;48.240;16.478;2024-01-27T15:30:25;101321.75;;;5.79;52.97
19594;BME280;9944;48.240;16.478;2024-01-27T15:34:50;101341.44;;;5.69;53.39
19594;BME280;9944;48.240;16.478;2024-01-27T15:39:15;101347.38;;;5.65;53.57
19594;BME280;9944;48.240;16.478;2024-01-27T15:43:39;101349.88;;;5.62;53.66
19594;BME280;9944;48.240;16.478;2024-01-27T15:48:02;101347.97;;;5.58;53.49
19594;BME280;9944;48.240;16.478;2024-01-27T15:52:26;101352.25;;;5.56;53.37
19594;BME280;9944;48.240;16.478;2024-01-27T15:56:51;101349.38;;;5.49;53.43
19594;BME280;9944;48.240;16.478;2024-01-27T16:01:16;101350.00;;;5.44;53.42
19594;BME280;9944;48.240;16.478;2024-01-27T16:05:40;101364.84;;;5.43;53.51
19594;BME280;9944;48.240;16.478;2024-01-27T16:10:04;101374.22;;;5.38;53.61
19594;BME280;9944;48.240;16.478;2024-01-27T16:14:29;101368.03;;;5.36;53.75
19594;BME280;9944;48.240;16.478;2024-01-27T16:18:53;101372.16;;;5.31;53.76
19594;BME280;9944;48.240;16.478;2024-01-27T16:23:16;101368.50;;;5.27;54.04
19594;BME280;9944;48.240;16.478;2024-01-27T16:27:40;101367.47;;;5.24;53.92
19594;BME280;9944;48.240;16.478;2024-01-27T16:32:06;101371.69;;;5.20;54.39
19594;BME280;9944;48.240;16.478;2024-01-27T16:36:30;101363.75;;;5.19;54.26
19594;BME280;9944;48.240;16.478;2024-01-27T16:40:53;101349.59;;;5.13;54.53
19594;BME280;9944;48.240;16.478;2024-01-27T16:45:17;101350.22;;;5.08;54.92
19594;BME280;9944;48.240;16.478;2024-01-27T16:49:42;101340.38;;;5.02;55.27
19594;BME280;9944;48.240;16.478;2024-01-27T16:54:06;101342.03;;;5.00;55.33
19594;BME280;9944;48.240;16.478;2024-01-27T16:58:30;101338.47;;;4.98;55.61
19594;BME280;9944;48.240;16.478;2024-01-27T17:02:53;101336.50;;;4.94;55.50
19594;BME280;9944;48.240;16.478;2024-01-27T17:07:18;101339.97;;;4.93;55.47
19594;BME280;9944;48.240;16.478;2024-01-27T17:11:42;101358.22;;;4.91;55.58
19594;BME280;9944;48.240;16.478;2024-01-27T17:16:05;101359.09;;;4.92;55.70
19594;BME280;9944;48.240;16.478;2024-01-27T17:20:29;101372.03;;;4.89;55.60
19594;BME280;9944;48.240;16.478;2024-01-27T17:24:54;101382.34;;;4.84;55.87
19594;BME280;9944;48.240;16.478;2024-01-27T17:29:20;101370.06;;;4.83;55.93
19594;BME280;9944;48.240;16.478;2024-01-27T17:33:44;101369.31;;;4.86;56.03
19594;BME280;9944;48.240;16.478;2024-01-27T17:38:10;101380.38;;;4.80;56.01
19594;BME280;9944;48.240;16.478;2024-01-27T17:42:35;101395.19;;;4.79;56.06
19594;BME280;9944;48.240;16.478;2024-01-27T17:46:59;101399.59;;;4.81;56.41
19594;BME280;9944;48.240;16.478;2024-01-27T17:51:22;101410.75;;;4.76;56.26
19594;BME280;9944;48.240;16.478;2024-01-27T17:55:46;101411.38;;;4.71;56.42
19594;BME280;9944;48.240;16.478;2024-01-27T18:00:14;101418.97;;;4.66;56.50
19594;BME280;9944;48.240;16.478;2024-01-27T18:04:41;101434.56;;;4.63;56.85
19594;BME280;9944;48.240;16.478;2024-01-27T18:09:04;101440.28;;;4.56;56.79
19594;BME280;9944;48.240;16.478;2024-01-27T18:13:28;101442.78;;;4.53;57.11
19594;BME280;9944;48.240;16.478;2024-01-27T18:17:53;101456.69;;;4.52;57.77
19594;BME280;9944;48.240;16.478;2024-01-27T18:22:17;101456.53;;;4.49;57.65
19594;BME280;9944;48.240;16.478;2024-01-27T18:26:40;101472.22;;;4.49;57.57
19594;BME280;9944;48.240;16.478;2024-01-27T18:31:04;101477.16;;;4.43;57.88
19594;BME280;9944;48.240;16.478;2024-01-27T18:35:29;101495.22;;;4.38;57.77
19594;BME280;9944;48.240;16.478;2024-01-27T18:39:53;101495.84;;;4.32;58.13
19594;BME280;9944;48.240;16.478;2024-01-27T18:44:20;101504.31;;;4.28;57.84
19594;BME280;9944;48.240;16.478;2024-01-27T18:48:44;101518.97;;;4.25;58.09
19594;BME280;9944;48.240;16.478;2024-01-27T18:53:13;101516.28;;;4.23;58.20
19594;BME280;9944;48.240;16.478;2024-01-27T18:57:37;101520.53;;;4.21;58.38
19594;BME280;9944;48.240;16.478;2024-01-27T19:02:00;101521.38;;;4.20;58.50
19594;BME280;9944;48.240;16.478;2024-01-27T19:06:24;101527.31;;;4.17;58.54
19594;BME280;9944;48.240;16.478;2024-01-27T19:10:48;101531.50;;;4.14;58.43
19594;BME280;9944;48.240;16.478;2024-01-27T19:15:12;101543.44;;;4.09;58.37
19594;BME280;9944;48.240;16.478;2024-01-27T19:19:37;101539.06;;;4.08;58.38
19594;BME280;9944;48.240;16.478;2024-01-27T19:24:00;101545.81;;;4.04;58.42
19594;BME280;9944;48.240;16.478;2024-01-27T19:28:25;101534.47;;;4.03;58.63
19594;BME280;9944;48.240;16.478;2024-01-27T19:32:49;101542.31;;;4.03;58.63
19594;BME280;9944;48.240;16.478;2024-01-27T19:37:13;101551.03;;;4.04;58.41
19594;BME280;9944;48.240;16.478;2024-01-27T19:41:37;101532.69;;;4.02;58.49
19594;BME280;9944;48.240;16.478;2024-01-27T19:46:02;101550.97;;;4.02;58.45
19594;BME280;9944;48.240;16.478;2024-01-27T19:50:26;101551.78;;;4.01;58.49
19594;BME280;9944;48.240;16.478;2024-01-27T19:54:49;101555.06;;;3.97;58.63
19594;BME280;9944;48.240;16.478;2024-01-27T19:59:13;101565.59;;;3.99;58.32
19594;BME280;9944;48.240;16.478;2024-01-27T20:03:38;101562.91;;;3.97;58.58
19594;BME280;9944;48.240;16.478;2024-01-27T20:08:02;101573.06;;;3.93;58.56
19594;BME280;9944;48.240;16.478;2024-01-27T20:12:26;101572.09;;;3.91;58.71
19594;BME280;9944;48.240;16.478;2024-01-27T20:16:50;101578.06;;;3.88;58.74
19594;BME280;9944;48.240;16.478;2024-01-27T20:21:16;101595.38;;;3.86;58.86
19594;BME280;9944;48.240;16.478;2024-01-27T20:25:39;101608.59;;;4.06;59.94
19594;BME280;9944;48.240;16.478;2024-01-27T20:30:03;101615.75;;;4.26;59.31
19594;BME280;9944;48.240;16.478;2024-01-27T20:34:29;101623.22;;;4.18;58.51
19594;BME280;9944;48.240;16.478;2024-01-27T20:38:54;101632.28;;;4.09;58.55
19594;BME280;9944;48.240;16.478;2024-01-27T20:43:18;101641.44;;;4.00;58.67
19594;BME280;9944;48.240;16.478;2024-01-27T20:47:41;101640.25;;;3.95;58.42
19594;BME280;9944;48.240;16.478;2024-01-27T20:52:06;101639.94;;;3.89;58.17
19594;BME280;9944;48.240;16.478;2024-01-27T20:56:31;101627.56;;;3.85;58.84
19594;BME280;9944;48.240;16.478;2024-01-27T21:00:55;101621.19;;;3.80;58.88
19594;BME280;9944;48.240;16.478;2024-01-27T21:05:19;101624.34;;;3.74;58.99
19594;BME280;9944;48.240;16.478;2024-01-27T21:09:43;101620.84;;;3.74;59.20
19594;BME280;9944;48.240;16.478;2024-01-27T21:14:07;101619.69;;;3.69;59.48
19594;BME280;9944;48.240;16.478;2024-01-27T21:18:31;101615.22;;;3.66;59.30
19594;BME280;9944;48.240;16.478;2024-01-27T21:22:55;101617.75;;;3.64;59.51
19594;BME280;9944;48.240;16.478;2024-01-27T21:27:44;101628.03;;;3.61;59.36
19594;BME280;9944;48.240;16.478;2024-01-27T21:32:09;101635.94;;;3.63;59.27
19594;BME280;9944;48.240;16.478;2024-01-27T21:36:33;101625.41;;;3.61;59.58
19594;BME280;9944;48.240;16.478;2024-01-27T21:40:56;101634.38;;;3.66;59.49
19594;BME280;9944;48.240;16.478;2024-01-27T21:45:39;101652.00;;;3.71;59.64
19594;BME280;9944;48.240;16.478;2024-01-27T21:50:05;101650.31;;;3.71;59.34
19594;BME280;9944;48.240;16.478;2024-01-27T21:54:29;101663.13;;;3.66;59.17
19594;BME280;9944;48.240;16.478;2024-01-27T21:58:53;101663.91;;;3.65;59.27
19594;BME280;9944;48.240;16.478;2024-01-27T22:03:17;101671.66;;;3.64;59.16
19594;BME280;9944;48.240;16.478;2024-01-27T22:07:42;101681.13;;;3.62;59.19
19594;BME280;9944;48.240;16.478;2024-01-27T22:12:06;101669.81;;;3.61;59.36
19594;BME280;9944;48.240;16.478;2024-01-27T22:16:30;101688.00;;;3.60;59.17
19594;BME280;9944;48.240;16.478;2024-01-27T22:20:54;101689.81;;;3.61;59.38
19594;BME280;9944;48.240;16.478;2024-01-27T22:25:19;101699.31;;;3.60;59.09
19594;BME280;9944;48.240;16.478;2024-01-27T22:29:43;101698.34;;;3.58;59.24
19594;BME280;9944;48.240;16.478;2024-01-27T22:34:06;101704.31;;;3.56;59.23
19594;BME280;9944;48.240;16.478;2024-01-27T22:38:31;101695.47;;;3.54;59.22
19594;BME280;9944;48.240;16.478;2024-01-27T22:42:55;101693.50;;;3.50;59.31
19594;BME280;9944;48.240;16.478;2024-01-27T22:47:20;101695.22;;;3.49;59.15
19594;BME280;9944;48.240;16.478;2024-01-27T22:51:43;101703.06;;;3.49;59.40
19594;BME280;9944;48.240;16.478;2024-01-27T22:56:11;101703.78;;;3.46;59.34
19594;BME280;9944;48.240;16.478;2024-01-27T23:00:36;101705.50;;;3.46;59.42
19594;BME280;9944;48.240;16.478;2024-01-27T23:05:02;101708.09;;;3.46;59.58
19594;BME280;9944;48.240;16.478;2024-01-27T23:09:26;101713.25;;;3.44;59.46
19594;BME280;9944;48.240;16.478;2024-01-27T23:13:50;101723.59;;;3.43;59.35
19594;BME280;9944;48.240;16.478;2024-01-27T23:18:30;101727.84;;;3.41;59.49
19594;BME280;9944;48.240;16.478;2024-01-27T23:22:54;101725.88;;;3.37;59.65
19594;BME280;9944;48.240;16.478;2024-01-27T23:27:17;101728.41;;;3.35;59.56